sensor_id;sensor_type;location;lat;lon;timestamp;P1;durP1;ratioP1;P2;durP2;ratioP2
37657;SDS011;23500;53.268;8.308;2022-07-10T00:00:27;1.40;;;1.10;;
37657;SDS011;23500;53.268;8.308;2022-07-10T00:02:55;1.65;;;1.00;;
37657;SDS011;23500;53.268;8.308;2022-07-10T00:05:21;1.73;;;1.10;;
37657;SDS011;23500;53.268;8.308;2022-07-10T00:07:48;2.92;;;1.13;;
37657;SDS011;23500;53.268;8.308;2022-07-10T00:10:14;2.00;;;0.98;;
37657;SDS011;23500;53.268;8.308;2022-07-10T00:12:40;2.10;;;1.10;;
37657;SDS011;23500;53.268;8.308;2022-07-10T00:15:06;1.60;;;1.00;;
37657;SDS011;23500;53.268;8.308;2022-07-10T00:17:32;2.28;;;1.23;;
37657;SDS011;23500;53.268;8.308;2022-07-10T00:19:58;3.35;;;1.05;;
37657;SDS011;23500;53.268;8.308;2022-07-10T00:22:24;3.22;;;1.05;;
37657;SDS011;23500;53.268;8.308;2022-07-10T00:24:50;1.80;;;1.00;;
37657;SDS011;23500;53.268;8.308;2022-07-10T00:27:16;1.38;;;0.82;;
37657;SDS011;23500;53.268;8.308;2022-07-10T00:29:42;3.47;;;1.08;;
37657;SDS011;23500;53.268;8.308;2022-07-10T00:32:08;2.65;;;1.05;;
37657;SDS011;23500;53.268;8.308;2022-07-10T00:34:34;3.40;;;1.20;;
37657;SDS011;23500;53.268;8.308;2022-07-10T00:37:00;1.67;;;0.90;;
37657;SDS011;23500;53.268;8.308;2022-07-10T00:39:26;0.98;;;0.88;;
37657;SDS011;23500;53.268;8.308;2022-07-10T00:41:52;1.45;;;1.13;;
37657;SDS011;23500;53.268;8.308;2022-07-10T00:44:18;1.65;;;1.00;;
37657;SDS011;23500;53.268;8.308;2022-07-10T00:46:43;2.63;;;0.90;;
37657;SDS011;23500;53.268;8.308;2022-07-10T00:49:09;2.42;;;0.90;;
37657;SDS011;23500;53.268;8.308;2022-07-10T00:51:35;1.35;;;1.00;;
37657;SDS011;23500;53.268;8.308;2022-07-10T00:54:02;1.27;;;0.93;;
37657;SDS011;23500;53.268;8.308;2022-07-10T00:56:29;2.33;;;0.98;;
37657;SDS011;23500;53.268;8.308;2022-07-10T00:58:55;1.85;;;0.93;;
37657;SDS011;23500;53.268;8.308;2022-07-10T01:01:22;2.00;;;1.10;;
37657;SDS011;23500;53.268;8.308;2022-07-10T01:03:48;1.38;;;0.75;;
37657;SDS011;23500;53.268;8.308;2022-07-10T01:06:15;0.95;;;0.90;;
37657;SDS011;23500;53.268;8.308;2022-07-10T01:08:41;1.73;;;0.93;;
37657;SDS011;23500;53.268;8.308;2022-07-10T01:11:10;1.98;;;0.98;;
37657;SDS011;23500;53.268;8.308;2022-07-10T01:13:37;1.48;;;0.90;;
37657;SDS011;23500;53.268;8.308;2022-07-10T01:16:04;2.45;;;0.85;;
37657;SDS011;23500;53.268;8.308;2022-07-10T01:18:30;2.50;;;1.10;;
37657;SDS011;23500;53.268;8.308;2022-07-10T01:20:56;1.38;;;0.85;;
37657;SDS011;23500;53.268;8.308;2022-07-10T01:23:22;1.00;;;0.90;;
37657;SDS011;23500;53.268;8.308;2022-07-10T01:25:49;2.22;;;1.15;;
37657;SDS011;23500;53.268;8.308;2022-07-10T01:28:18;1.08;;;0.88;;
37657;SDS011;23500;53.268;8.308;2022-07-10T01:30:45;1.70;;;0.80;;
37657;SDS011;23500;53.268;8.308;2022-07-10T01:33:12;1.13;;;0.80;;
37657;SDS011;23500;53.268;8.308;2022-07-10T01:35:37;1.55;;;1.00;;
37657;SDS011;23500;53.268;8.308;2022-07-10T01:38:04;1.25;;;0.90;;
37657;SDS011;23500;53.268;8.308;2022-07-10T01:40:29;1.13;;;0.80;;
37657;SDS011;23500;53.268;8.308;2022-07-10T01:42:55;1.35;;;0.77;;
37657;SDS011;23500;53.268;8.308;2022-07-10T01:45:21;1.25;;;0.90;;
37657;SDS011;23500;53.268;8.308;2022-07-10T01:47:46;1.08;;;0.88;;
37657;SDS011;23500;53.268;8.308;2022-07-10T01:50:12;1.25;;;0.90;;
37657;SDS011;23500;53.268;8.308;2022-07-10T01:52:38;1.35;;;0.77;;
37657;SDS011;23500;53.268;8.308;2022-07-10T01:55:06;1.45;;;0.93;;
37657;SDS011;23500;53.268;8.308;2022-07-10T01:57:32;1.08;;;0.70;;
37657;SDS011;23500;53.268;8.308;2022-07-10T01:59:57;1.27;;;0.90;;
37657;SDS011;23500;53.268;8.308;2022-07-10T02:02:23;1.48;;;1.10;;
37657;SDS011;23500;53.268;8.308;2022-07-10T02:04:49;1.38;;;0.90;;
37657;SDS011;23500;53.268;8.308;2022-07-10T02:07:16;1.27;;;0.85;;
37657;SDS011;23500;53.268;8.308;2022-07-10T02:09:43;0.80;;;0.70;;
37657;SDS011;23500;53.268;8.308;2022-07-10T02:12:10;1.73;;;0.90;;
37657;SDS011;23500;53.268;8.308;2022-07-10T02:14:38;1.20;;;0.90;;
37657;SDS011;23500;53.268;8.308;2022-07-10T02:17:04;2.03;;;0.98;;
37657;SDS011;23500;53.268;8.308;2022-07-10T02:19:30;1.48;;;0.90;;
37657;SDS011;23500;53.268;8.308;2022-07-10T02:21:56;1.58;;;0.80;;
37657;SDS011;23500;53.268;8.308;2022-07-10T02:24:22;1.15;;;0.90;;
37657;SDS011;23500;53.268;8.308;2022-07-10T02:26:48;1.05;;;0.90;;
37657;SDS011;23500;53.268;8.308;2022-07-10T02:29:14;1.13;;;0.70;;
37657;SDS011;23500;53.268;8.308;2022-07-10T02:31:40;1.10;;;0.93;;
37657;SDS011;23500;53.268;8.308;2022-07-10T02:34:10;2.08;;;1.10;;
37657;SDS011;23500;53.268;8.308;2022-07-10T02:36:36;2.13;;;0.98;;
37657;SDS011;23500;53.268;8.308;2022-07-10T02:39:06;1.20;;;0.88;;
37657;SDS011;23500;53.268;8.308;2022-07-10T02:41:32;2.53;;;0.80;;
37657;SDS011;23500;53.268;8.308;2022-07-10T02:43:58;0.73;;;0.70;;
37657;SDS011;23500;53.268;8.308;2022-07-10T02:46:24;0.93;;;0.80;;
37657;SDS011;23500;53.268;8.308;2022-07-10T02:48:50;1.25;;;0.90;;
37657;SDS011;23500;53.268;8.308;2022-07-10T02:51:16;2.35;;;1.10;;
37657;SDS011;23500;53.268;8.308;2022-07-10T02:53:41;1.83;;;0.90;;
37657;SDS011;23500;53.268;8.308;2022-07-10T02:56:07;1.23;;;0.93;;
37657;SDS011;23500;53.268;8.308;2022-07-10T02:58:33;2.05;;;0.73;;
37657;SDS011;23500;53.268;8.308;2022-07-10T03:00:59;1.05;;;0.70;;
37657;SDS011;23500;53.268;8.308;2022-07-10T03:03:25;1.27;;;0.90;;
37657;SDS011;23500;53.268;8.308;2022-07-10T03:05:50;0.73;;;0.70;;
37657;SDS011;23500;53.268;8.308;2022-07-10T03:08:16;1.13;;;0.82;;
37657;SDS011;23500;53.268;8.308;2022-07-10T03:10:42;1.30;;;1.00;;
37657;SDS011;23500;53.268;8.308;2022-07-10T03:13:07;1.33;;;0.80;;
37657;SDS011;23500;53.268;8.308;2022-07-10T03:15:33;1.17;;;0.88;;
37657;SDS011;23500;53.268;8.308;2022-07-10T03:17:59;1.38;;;0.85;;
37657;SDS011;23500;53.268;8.308;2022-07-10T03:20:25;1.85;;;1.00;;
37657;SDS011;23500;53.268;8.308;2022-07-10T03:22:50;0.95;;;0.68;;
37657;SDS011;23500;53.268;8.308;2022-07-10T03:25:16;1.73;;;1.00;;
37657;SDS011;23500;53.268;8.308;2022-07-10T03:27:42;0.98;;;0.70;;
37657;SDS011;23500;53.268;8.308;2022-07-10T03:30:08;1.30;;;0.90;;
37657;SDS011;23500;53.268;8.308;2022-07-10T03:32:34;2.28;;;1.00;;
37657;SDS011;23500;53.268;8.308;2022-07-10T03:35:00;0.68;;;0.60;;
37657;SDS011;23500;53.268;8.308;2022-07-10T03:37:26;0.70;;;0.60;;
37657;SDS011;23500;53.268;8.308;2022-07-10T03:39:52;1.88;;;0.98;;
37657;SDS011;23500;53.268;8.308;2022-07-10T03:42:17;1.10;;;0.90;;
37657;SDS011;23500;53.268;8.308;2022-07-10T03:44:43;1.00;;;0.77;;
37657;SDS011;23500;53.268;8.308;2022-07-10T03:47:09;0.93;;;0.80;;
37657;SDS011;23500;53.268;8.308;2022-07-10T03:49:35;1.90;;;0.73;;
37657;SDS011;23500;53.268;8.308;2022-07-10T03:52:03;2.15;;;1.00;;
37657;SDS011;23500;53.268;8.308;2022-07-10T03:54:29;1.55;;;0.88;;
37657;SDS011;23500;53.268;8.308;2022-07-10T03:56:56;1.00;;;0.80;;
37657;SDS011;23500;53.268;8.308;2022-07-10T03:59:40;1.20;;;0.80;;
37657;SDS011;23500;53.268;8.308;2022-07-10T04:02:06;0.93;;;0.77;;
37657;SDS011;23500;53.268;8.308;2022-07-10T04:04:32;0.70;;;0.70;;
37657;SDS011;23500;53.268;8.308;2022-07-10T04:06:58;0.90;;;0.82;;
37657;SDS011;23500;53.268;8.308;2022-07-10T04:09:24;1.02;;;0.70;;
37657;SDS011;23500;53.268;8.308;2022-07-10T04:11:49;0.82;;;0.63;;
37657;SDS011;23500;53.268;8.308;2022-07-10T04:14:15;0.90;;;0.70;;
37657;SDS011;23500;53.268;8.308;2022-07-10T04:16:41;1.30;;;0.88;;
37657;SDS011;23500;53.268;8.308;2022-07-10T04:19:07;0.95;;;0.70;;
37657;SDS011;23500;53.268;8.308;2022-07-10T04:21:32;1.58;;;0.88;;
37657;SDS011;23500;53.268;8.308;2022-07-10T04:23:58;1.20;;;0.85;;
37657;SDS011;23500;53.268;8.308;2022-07-10T04:26:24;2.00;;;0.80;;
37657;SDS011;23500;53.268;8.308;2022-07-10T04:28:49;1.02;;;0.70;;
37657;SDS011;23500;53.268;8.308;2022-07-10T04:31:15;2.70;;;1.00;;
37657;SDS011;23500;53.268;8.308;2022-07-10T04:33:41;1.73;;;0.75;;
37657;SDS011;23500;53.268;8.308;2022-07-10T04:36:07;1.00;;;0.70;;
37657;SDS011;23500;53.268;8.308;2022-07-10T04:38:32;1.00;;;0.80;;
37657;SDS011;23500;53.268;8.308;2022-07-10T04:40:58;1.70;;;0.90;;
37657;SDS011;23500;53.268;8.308;2022-07-10T04:43:24;1.48;;;0.93;;
37657;SDS011;23500;53.268;8.308;2022-07-10T04:45:50;1.58;;;0.82;;
37657;SDS011;23500;53.268;8.308;2022-07-10T04:48:16;0.80;;;0.68;;
37657;SDS011;23500;53.268;8.308;2022-07-10T04:50:41;1.35;;;0.60;;
37657;SDS011;23500;53.268;8.308;2022-07-10T04:53:07;1.63;;;0.65;;
37657;SDS011;23500;53.268;8.308;2022-07-10T04:55:33;1.23;;;0.80;;
37657;SDS011;23500;53.268;8.308;2022-07-10T04:57:59;0.73;;;0.70;;
37657;SDS011;23500;53.268;8.308;2022-07-10T05:00:24;1.13;;;0.70;;
37657;SDS011;23500;53.268;8.308;2022-07-10T05:02:50;0.80;;;0.80;;
37657;SDS011;23500;53.268;8.308;2022-07-10T05:05:16;1.50;;;0.80;;
37657;SDS011;23500;53.268;8.308;2022-07-10T05:07:41;1.80;;;0.75;;
37657;SDS011;23500;53.268;8.308;2022-07-10T05:10:07;1.73;;;0.70;;
37657;SDS011;23500;53.268;8.308;2022-07-10T05:12:34;1.27;;;0.70;;
37657;SDS011;23500;53.268;8.308;2022-07-10T05:14:59;1.90;;;0.80;;
37657;SDS011;23500;53.268;8.308;2022-07-10T05:17:25;0.85;;;0.70;;
37657;SDS011;23500;53.268;8.308;2022-07-10T05:19:53;1.08;;;0.82;;
37657;SDS011;23500;53.268;8.308;2022-07-10T05:22:22;0.60;;;0.60;;
37657;SDS011;23500;53.268;8.308;2022-07-10T05:24:48;0.52;;;0.52;;
37657;SDS011;23500;53.268;8.308;2022-07-10T05:27:13;1.15;;;0.70;;
37657;SDS011;23500;53.268;8.308;2022-07-10T05:29:41;3.15;;;0.80;;
37657;SDS011;23500;53.268;8.308;2022-07-10T05:32:07;1.77;;;1.05;;
37657;SDS011;23500;53.268;8.308;2022-07-10T05:34:32;1.00;;;0.80;;
37657;SDS011;23500;53.268;8.308;2022-07-10T05:36:58;0.75;;;0.65;;
37657;SDS011;23500;53.268;8.308;2022-07-10T05:39:24;0.70;;;0.60;;
37657;SDS011;23500;53.268;8.308;2022-07-10T05:41:51;1.23;;;0.60;;
37657;SDS011;23500;53.268;8.308;2022-07-10T05:44:19;0.98;;;0.63;;
37657;SDS011;23500;53.268;8.308;2022-07-10T05:46:45;1.50;;;0.75;;
37657;SDS011;23500;53.268;8.308;2022-07-10T05:49:11;0.75;;;0.70;;
37657;SDS011;23500;53.268;8.308;2022-07-10T05:51:37;1.02;;;0.70;;
37657;SDS011;23500;53.268;8.308;2022-07-10T05:54:03;1.10;;;0.90;;
37657;SDS011;23500;53.268;8.308;2022-07-10T05:56:29;1.63;;;0.63;;
37657;SDS011;23500;53.268;8.308;2022-07-10T05:58:55;2.58;;;0.95;;
37657;SDS011;23500;53.268;8.308;2022-07-10T06:01:21;1.00;;;0.70;;
37657;SDS011;23500;53.268;8.308;2022-07-10T06:03:47;0.75;;;0.70;;
37657;SDS011;23500;53.268;8.308;2022-07-10T06:06:13;0.95;;;0.65;;
37657;SDS011;23500;53.268;8.308;2022-07-10T06:08:42;1.13;;;0.70;;
37657;SDS011;23500;53.268;8.308;2022-07-10T06:11:08;0.93;;;0.82;;
37657;SDS011;23500;53.268;8.308;2022-07-10T06:13:34;0.80;;;0.70;;
37657;SDS011;23500;53.268;8.308;2022-07-10T06:15:59;1.13;;;0.80;;
37657;SDS011;23500;53.268;8.308;2022-07-10T06:18:25;0.77;;;0.70;;
37657;SDS011;23500;53.268;8.308;2022-07-10T06:20:51;1.35;;;0.95;;
37657;SDS011;23500;53.268;8.308;2022-07-10T06:23:17;1.55;;;0.63;;
37657;SDS011;23500;53.268;8.308;2022-07-10T06:25:42;0.70;;;0.60;;
37657;SDS011;23500;53.268;8.308;2022-07-10T06:28:08;0.65;;;0.55;;
37657;SDS011;23500;53.268;8.308;2022-07-10T06:30:34;0.88;;;0.63;;
37657;SDS011;23500;53.268;8.308;2022-07-10T06:32:59;1.50;;;0.85;;
37657;SDS011;23500;53.268;8.308;2022-07-10T06:35:25;0.80;;;0.52;;
37657;SDS011;23500;53.268;8.308;2022-07-10T06:37:50;0.95;;;0.63;;
37657;SDS011;23500;53.268;8.308;2022-07-10T06:40:16;0.60;;;0.60;;
37657;SDS011;23500;53.268;8.308;2022-07-10T06:42:45;0.90;;;0.60;;
37657;SDS011;23500;53.268;8.308;2022-07-10T06:45:10;1.30;;;0.80;;
37657;SDS011;23500;53.268;8.308;2022-07-10T06:47:36;2.45;;;0.80;;
37657;SDS011;23500;53.268;8.308;2022-07-10T06:50:20;1.52;;;0.60;;
37657;SDS011;23500;53.268;8.308;2022-07-10T06:52:47;0.52;;;0.52;;
37657;SDS011;23500;53.268;8.308;2022-07-10T06:55:13;0.70;;;0.70;;
37657;SDS011;23500;53.268;8.308;2022-07-10T06:57:39;0.98;;;0.60;;
37657;SDS011;23500;53.268;8.308;2022-07-10T07:00:05;0.50;;;0.50;;
37657;SDS011;23500;53.268;8.308;2022-07-10T07:02:31;1.80;;;0.80;;
37657;SDS011;23500;53.268;8.308;2022-07-10T07:04:57;0.63;;;0.60;;
37657;SDS011;23500;53.268;8.308;2022-07-10T07:07:23;0.88;;;0.60;;
37657;SDS011;23500;53.268;8.308;2022-07-10T07:09:48;0.95;;;0.52;;
37657;SDS011;23500;53.268;8.308;2022-07-10T07:12:17;0.88;;;0.52;;
37657;SDS011;23500;53.268;8.308;2022-07-10T07:14:43;1.05;;;0.75;;
37657;SDS011;23500;53.268;8.308;2022-07-10T07:17:09;0.90;;;0.80;;
37657;SDS011;23500;53.268;8.308;2022-07-10T07:19:36;1.08;;;0.80;;
37657;SDS011;23500;53.268;8.308;2022-07-10T07:22:22;1.08;;;0.90;;
37657;SDS011;23500;53.268;8.308;2022-07-10T07:25:07;1.08;;;0.50;;
37657;SDS011;23500;53.268;8.308;2022-07-10T07:27:34;1.65;;;0.70;;
37657;SDS011;23500;53.268;8.308;2022-07-10T07:30:05;1.08;;;0.82;;
37657;SDS011;23500;53.268;8.308;2022-07-10T07:32:32;0.70;;;0.63;;
37657;SDS011;23500;53.268;8.308;2022-07-10T07:34:59;1.63;;;0.70;;
37657;SDS011;23500;53.268;8.308;2022-07-10T07:37:35;0.65;;;0.57;;
37657;SDS011;23500;53.268;8.308;2022-07-10T07:40:04;1.00;;;0.80;;
37657;SDS011;23500;53.268;8.308;2022-07-10T07:42:33;1.27;;;0.73;;
37657;SDS011;23500;53.268;8.308;2022-07-10T07:44:59;1.45;;;0.80;;
37657;SDS011;23500;53.268;8.308;2022-07-10T07:47:25;0.60;;;0.60;;
37657;SDS011;23500;53.268;8.308;2022-07-10T07:49:51;0.80;;;0.80;;
37657;SDS011;23500;53.268;8.308;2022-07-10T07:52:16;1.13;;;0.70;;
37657;SDS011;23500;53.268;8.308;2022-07-10T07:54:43;1.05;;;0.80;;
37657;SDS011;23500;53.268;8.308;2022-07-10T07:57:10;0.85;;;0.70;;
37657;SDS011;23500;53.268;8.308;2022-07-10T07:59:36;1.05;;;0.70;;
37657;SDS011;23500;53.268;8.308;2022-07-10T08:02:01;0.90;;;0.70;;
37657;SDS011;23500;53.268;8.308;2022-07-10T08:04:27;1.40;;;0.80;;
37657;SDS011;23500;53.268;8.308;2022-07-10T08:06:53;1.13;;;0.70;;
37657;SDS011;23500;53.268;8.308;2022-07-10T08:09:19;0.93;;;0.68;;
37657;SDS011;23500;53.268;8.308;2022-07-10T08:11:45;1.15;;;0.80;;
37657;SDS011;23500;53.268;8.308;2022-07-10T08:14:11;2.20;;;0.70;;
37657;SDS011;23500;53.268;8.308;2022-07-10T08:16:38;1.25;;;0.73;;
37657;SDS011;23500;53.268;8.308;2022-07-10T08:19:04;0.75;;;0.60;;
37657;SDS011;23500;53.268;8.308;2022-07-10T08:21:30;1.10;;;0.77;;
37657;SDS011;23500;53.268;8.308;2022-07-10T08:23:56;1.58;;;0.77;;
37657;SDS011;23500;53.268;8.308;2022-07-10T08:26:22;0.93;;;0.73;;
37657;SDS011;23500;53.268;8.308;2022-07-10T08:28:48;1.90;;;0.90;;
37657;SDS011;23500;53.268;8.308;2022-07-10T08:31:13;2.75;;;0.90;;
37657;SDS011;23500;53.268;8.308;2022-07-10T08:33:39;0.82;;;0.60;;
37657;SDS011;23500;53.268;8.308;2022-07-10T08:36:05;2.17;;;0.90;;
37657;SDS011;23500;53.268;8.308;2022-07-10T08:38:31;4.72;;;1.23;;
37657;SDS011;23500;53.268;8.308;2022-07-10T08:40:57;2.47;;;0.90;;
37657;SDS011;23500;53.268;8.308;2022-07-10T08:43:24;3.63;;;1.15;;
37657;SDS011;23500;53.268;8.308;2022-07-10T08:45:51;1.10;;;0.95;;
37657;SDS011;23500;53.268;8.308;2022-07-10T08:48:20;2.03;;;1.10;;
37657;SDS011;23500;53.268;8.308;2022-07-10T08:50:47;1.90;;;0.70;;
37657;SDS011;23500;53.268;8.308;2022-07-10T08:53:24;2.47;;;0.90;;
37657;SDS011;23500;53.268;8.308;2022-07-10T08:55:59;2.38;;;1.00;;
37657;SDS011;23500;53.268;8.308;2022-07-10T08:58:25;1.73;;;0.95;;
37657;SDS011;23500;53.268;8.308;2022-07-10T09:00:52;2.40;;;0.95;;
37657;SDS011;23500;53.268;8.308;2022-07-10T09:03:18;1.48;;;0.95;;
37657;SDS011;23500;53.268;8.308;2022-07-10T09:05:44;1.40;;;1.10;;
37657;SDS011;23500;53.268;8.308;2022-07-10T09:08:27;1.73;;;1.00;;
37657;SDS011;23500;53.268;8.308;2022-07-10T09:11:15;2.65;;;1.00;;
37657;SDS011;23500;53.268;8.308;2022-07-10T09:13:48;1.60;;;0.93;;
37657;SDS011;23500;53.268;8.308;2022-07-10T09:16:22;2.72;;;1.02;;
37657;SDS011;23500;53.268;8.308;2022-07-10T09:18:52;1.55;;;0.90;;
37657;SDS011;23500;53.268;8.308;2022-07-10T09:21:18;2.17;;;1.27;;
37657;SDS011;23500;53.268;8.308;2022-07-10T09:23:44;2.40;;;1.10;;
37657;SDS011;23500;53.268;8.308;2022-07-10T09:26:10;2.83;;;1.10;;
37657;SDS011;23500;53.268;8.308;2022-07-10T09:28:37;2.20;;;1.15;;
37657;SDS011;23500;53.268;8.308;2022-07-10T09:31:03;1.73;;;1.10;;
37657;SDS011;23500;53.268;8.308;2022-07-10T09:33:30;2.40;;;1.08;;
37657;SDS011;23500;53.268;8.308;2022-07-10T09:36:03;1.60;;;0.82;;
37657;SDS011;23500;53.268;8.308;2022-07-10T09:43:43;2.15;;;1.10;;
37657;SDS011;23500;53.268;8.308;2022-07-10T09:46:15;2.45;;;1.05;;
37657;SDS011;23500;53.268;8.308;2022-07-10T09:48:41;1.60;;;0.93;;
37657;SDS011;23500;53.268;8.308;2022-07-10T09:51:09;4.03;;;1.20;;
37657;SDS011;23500;53.268;8.308;2022-07-10T09:53:37;3.25;;;1.50;;
37657;SDS011;23500;53.268;8.308;2022-07-10T09:56:06;2.20;;;1.13;;
37657;SDS011;23500;53.268;8.308;2022-07-10T09:58:33;2.33;;;1.30;;
37657;SDS011;23500;53.268;8.308;2022-07-10T10:01:01;3.40;;;1.40;;
37657;SDS011;23500;53.268;8.308;2022-07-10T10:03:28;3.28;;;1.60;;
37657;SDS011;23500;53.268;8.308;2022-07-10T10:06:03;3.33;;;1.77;;
37657;SDS011;23500;53.268;8.308;2022-07-10T10:11:30;4.00;;;1.35;;
37657;SDS011;23500;53.268;8.308;2022-07-10T10:14:00;2.35;;;1.25;;
37657;SDS011;23500;53.268;8.308;2022-07-10T10:16:27;3.53;;;1.40;;
37657;SDS011;23500;53.268;8.308;2022-07-10T10:18:53;2.65;;;1.27;;
37657;SDS011;23500;53.268;8.308;2022-07-10T10:21:39;2.83;;;1.10;;
37657;SDS011;23500;53.268;8.308;2022-07-10T10:24:05;4.40;;;1.38;;
37657;SDS011;23500;53.268;8.308;2022-07-10T10:26:31;2.60;;;1.27;;
37657;SDS011;23500;53.268;8.308;2022-07-10T10:28:59;1.85;;;1.20;;
37657;SDS011;23500;53.268;8.308;2022-07-10T10:31:27;3.13;;;1.42;;
37657;SDS011;23500;53.268;8.308;2022-07-10T10:33:54;3.63;;;1.42;;
37657;SDS011;23500;53.268;8.308;2022-07-10T10:39:02;2.88;;;1.42;;
37657;SDS011;23500;53.268;8.308;2022-07-10T10:47:19;2.72;;;1.60;;
37657;SDS011;23500;53.268;8.308;2022-07-10T10:49:52;2.45;;;1.30;;
37657;SDS011;23500;53.268;8.308;2022-07-10T10:52:16;3.70;;;1.50;;
37657;SDS011;23500;53.268;8.308;2022-07-10T10:57:39;3.25;;;1.52;;
37657;SDS011;23500;53.268;8.308;2022-07-10T11:00:13;2.45;;;1.20;;
37657;SDS011;23500;53.268;8.308;2022-07-10T11:02:40;2.63;;;1.33;;
37657;SDS011;23500;53.268;8.308;2022-07-10T11:07:57;2.45;;;1.35;;
37657;SDS011;23500;53.268;8.308;2022-07-10T11:12:59;2.75;;;1.50;;
37657;SDS011;23500;53.268;8.308;2022-07-10T11:15:29;2.95;;;1.40;;
37657;SDS011;23500;53.268;8.308;2022-07-10T11:17:57;3.42;;;1.50;;
37657;SDS011;23500;53.268;8.308;2022-07-10T11:20:33;2.40;;;1.42;;
37657;SDS011;23500;53.268;8.308;2022-07-10T11:25:52;3.63;;;1.45;;
37657;SDS011;23500;53.268;8.308;2022-07-10T11:28:54;3.45;;;1.42;;
37657;SDS011;23500;53.268;8.308;2022-07-10T11:31:32;6.40;;;1.83;;
37657;SDS011;23500;53.268;8.308;2022-07-10T11:34:09;4.55;;;2.22;;
37657;SDS011;23500;53.268;8.308;2022-07-10T11:36:38;6.50;;;2.30;;
37657;SDS011;23500;53.268;8.308;2022-07-10T11:39:07;5.45;;;2.05;;
37657;SDS011;23500;53.268;8.308;2022-07-10T11:41:44;5.25;;;2.00;;
37657;SDS011;23500;53.268;8.308;2022-07-10T11:44:14;3.50;;;2.05;;
37657;SDS011;23500;53.268;8.308;2022-07-10T11:46:44;4.57;;;2.17;;
37657;SDS011;23500;53.268;8.308;2022-07-10T11:49:13;5.25;;;2.10;;
37657;SDS011;23500;53.268;8.308;2022-07-10T11:51:40;5.60;;;2.33;;
37657;SDS011;23500;53.268;8.308;2022-07-10T11:56:34;5.15;;;2.30;;
37657;SDS011;23500;53.268;8.308;2022-07-10T11:59:08;8.27;;;2.60;;
37657;SDS011;23500;53.268;8.308;2022-07-10T12:01:40;5.75;;;2.60;;
37657;SDS011;23500;53.268;8.308;2022-07-10T12:04:10;6.00;;;2.63;;
37657;SDS011;23500;53.268;8.308;2022-07-10T12:06:38;4.45;;;2.15;;
37657;SDS011;23500;53.268;8.308;2022-07-10T12:09:09;8.10;;;2.67;;
37657;SDS011;23500;53.268;8.308;2022-07-10T12:11:38;4.55;;;2.25;;
37657;SDS011;23500;53.268;8.308;2022-07-10T12:14:19;5.38;;;2.25;;
37657;SDS011;23500;53.268;8.308;2022-07-10T12:16:49;5.97;;;2.40;;
37657;SDS011;23500;53.268;8.308;2022-07-10T12:19:17;5.70;;;2.38;;
37657;SDS011;23500;53.268;8.308;2022-07-10T12:21:45;3.97;;;2.28;;
37657;SDS011;23500;53.268;8.308;2022-07-10T12:24:12;5.75;;;2.40;;
37657;SDS011;23500;53.268;8.308;2022-07-10T12:26:41;6.97;;;2.10;;
37657;SDS011;23500;53.268;8.308;2022-07-10T12:29:29;4.63;;;2.15;;
37657;SDS011;23500;53.268;8.308;2022-07-10T12:31:55;4.78;;;2.40;;
37657;SDS011;23500;53.268;8.308;2022-07-10T12:37:11;5.40;;;2.35;;
37657;SDS011;23500;53.268;8.308;2022-07-10T12:39:46;4.05;;;2.10;;
37657;SDS011;23500;53.268;8.308;2022-07-10T12:42:12;5.45;;;2.40;;
37657;SDS011;23500;53.268;8.308;2022-07-10T12:44:48;6.00;;;2.25;;
37657;SDS011;23500;53.268;8.308;2022-07-10T12:47:15;4.90;;;2.10;;
37657;SDS011;23500;53.268;8.308;2022-07-10T12:52:31;7.68;;;2.22;;
37657;SDS011;23500;53.268;8.308;2022-07-10T13:00:23;4.13;;;2.50;;
37657;SDS011;23500;53.268;8.308;2022-07-10T13:05:38;6.32;;;2.50;;
37657;SDS011;23500;53.268;8.308;2022-07-10T13:08:05;4.35;;;2.42;;
37657;SDS011;23500;53.268;8.308;2022-07-10T13:10:44;4.18;;;2.33;;
37657;SDS011;23500;53.268;8.308;2022-07-10T13:13:14;3.97;;;2.38;;
37657;SDS011;23500;53.268;8.308;2022-07-10T13:15:40;3.58;;;2.38;;
37657;SDS011;23500;53.268;8.308;2022-07-10T13:18:14;5.43;;;2.60;;
37657;SDS011;23500;53.268;8.308;2022-07-10T13:20:51;3.78;;;2.50;;
37657;SDS011;23500;53.268;8.308;2022-07-10T13:23:22;3.92;;;2.55;;
37657;SDS011;23500;53.268;8.308;2022-07-10T13:25:50;3.58;;;2.10;;
37657;SDS011;23500;53.268;8.308;2022-07-10T13:28:16;5.25;;;2.53;;
37657;SDS011;23500;53.268;8.308;2022-07-10T13:30:42;4.97;;;2.53;;
37657;SDS011;23500;53.268;8.308;2022-07-10T13:33:08;6.05;;;2.55;;
37657;SDS011;23500;53.268;8.308;2022-07-10T13:35:34;4.82;;;2.33;;
37657;SDS011;23500;53.268;8.308;2022-07-10T13:38:01;6.25;;;2.42;;
37657;SDS011;23500;53.268;8.308;2022-07-10T13:40:31;3.67;;;2.25;;
37657;SDS011;23500;53.268;8.308;2022-07-10T13:42:59;3.95;;;2.15;;
37657;SDS011;23500;53.268;8.308;2022-07-10T13:45:25;5.10;;;2.65;;
37657;SDS011;23500;53.268;8.308;2022-07-10T13:47:58;3.97;;;2.20;;
37657;SDS011;23500;53.268;8.308;2022-07-10T13:50:24;3.92;;;2.20;;
37657;SDS011;23500;53.268;8.308;2022-07-10T13:52:50;4.53;;;2.40;;
37657;SDS011;23500;53.268;8.308;2022-07-10T13:55:16;3.85;;;2.40;;
37657;SDS011;23500;53.268;8.308;2022-07-10T13:57:42;2.65;;;2.00;;
37657;SDS011;23500;53.268;8.308;2022-07-10T14:00:09;4.47;;;2.45;;
37657;SDS011;23500;53.268;8.308;2022-07-10T14:02:36;5.00;;;2.55;;
37657;SDS011;23500;53.268;8.308;2022-07-10T14:05:01;3.92;;;2.20;;
37657;SDS011;23500;53.268;8.308;2022-07-10T14:07:27;4.20;;;2.65;;
37657;SDS011;23500;53.268;8.308;2022-07-10T14:09:53;3.90;;;2.47;;
37657;SDS011;23500;53.268;8.308;2022-07-10T14:12:19;3.28;;;2.10;;
37657;SDS011;23500;53.268;8.308;2022-07-10T14:14:45;4.65;;;2.35;;
37657;SDS011;23500;53.268;8.308;2022-07-10T14:17:11;3.00;;;2.20;;
37657;SDS011;23500;53.268;8.308;2022-07-10T14:19:37;4.38;;;2.20;;
37657;SDS011;23500;53.268;8.308;2022-07-10T14:22:03;3.22;;;2.20;;
37657;SDS011;23500;53.268;8.308;2022-07-10T14:24:29;3.45;;;2.15;;
37657;SDS011;23500;53.268;8.308;2022-07-10T14:26:55;4.70;;;2.25;;
37657;SDS011;23500;53.268;8.308;2022-07-10T14:29:20;5.05;;;2.20;;
37657;SDS011;23500;53.268;8.308;2022-07-10T14:31:46;5.15;;;2.40;;
37657;SDS011;23500;53.268;8.308;2022-07-10T14:34:14;2.83;;;1.92;;
37657;SDS011;23500;53.268;8.308;2022-07-10T14:36:40;3.13;;;2.13;;
37657;SDS011;23500;53.268;8.308;2022-07-10T14:39:06;3.92;;;2.33;;
37657;SDS011;23500;53.268;8.308;2022-07-10T14:41:32;5.13;;;2.08;;
37657;SDS011;23500;53.268;8.308;2022-07-10T14:43:58;3.50;;;1.73;;
37657;SDS011;23500;53.268;8.308;2022-07-10T14:46:23;5.10;;;2.22;;
37657;SDS011;23500;53.268;8.308;2022-07-10T14:48:49;3.38;;;1.70;;
37657;SDS011;23500;53.268;8.308;2022-07-10T14:51:15;3.15;;;2.00;;
37657;SDS011;23500;53.268;8.308;2022-07-10T14:53:41;2.35;;;1.73;;
37657;SDS011;23500;53.268;8.308;2022-07-10T14:56:10;3.50;;;1.70;;
37657;SDS011;23500;53.268;8.308;2022-07-10T14:58:36;3.15;;;2.13;;
37657;SDS011;23500;53.268;8.308;2022-07-10T15:01:02;3.05;;;2.03;;
37657;SDS011;23500;53.268;8.308;2022-07-10T15:03:28;3.20;;;1.95;;
37657;SDS011;23500;53.268;8.308;2022-07-10T15:05:55;5.20;;;1.95;;
37657;SDS011;23500;53.268;8.308;2022-07-10T15:08:22;4.70;;;1.95;;
37657;SDS011;23500;53.268;8.308;2022-07-10T15:10:48;3.42;;;1.70;;
37657;SDS011;23500;53.268;8.308;2022-07-10T15:13:14;5.60;;;1.88;;
37657;SDS011;23500;53.268;8.308;2022-07-10T15:15:40;7.75;;;2.25;;
37657;SDS011;23500;53.268;8.308;2022-07-10T15:18:07;3.72;;;1.92;;
37657;SDS011;23500;53.268;8.308;2022-07-10T15:20:32;3.05;;;1.85;;
37657;SDS011;23500;53.268;8.308;2022-07-10T15:22:58;2.90;;;1.73;;
37657;SDS011;23500;53.268;8.308;2022-07-10T15:25:24;2.75;;;2.08;;
37657;SDS011;23500;53.268;8.308;2022-07-10T15:27:51;3.50;;;1.85;;
37657;SDS011;23500;53.268;8.308;2022-07-10T15:30:17;3.80;;;2.13;;
37657;SDS011;23500;53.268;8.308;2022-07-10T15:32:43;3.13;;;2.00;;